Time;durP1;ratioP1;P1;durP2;ratioP2;P2;SDS_P1;SDS_P2;PMS_P1;PMS_P2;Temp;Humidity;BMP_temperature;BMP_pressure;BME280_temperature;BME280_humidity;BME280_pressure;Samples;Min_cycle;Max_cycle;Signal;HPM_P1;HPM_P2
2022/04/08 00:01:56;;;;;;;1999.90;999.90;;;7.10;99.90;;;;;;5092889;28;20877;-66
2022/04/08 00:04:23;;;;;;;1999.90;999.90;;;7.20;99.90;;;;;;5093381;28;20445;-66
2022/04/08 00:06:49;;;;;;;1999.90;999.90;;;7.20;99.90;;;;;;5093359;28;20494;-67
2022/04/08 00:09:17;;;;;;;1999.90;999.90;;;7.30;99.90;;;;;;5092797;28;20519;-66
2022/04/08 00:11:44;;;;;;;1999.90;999.90;;;7.30;99.90;;;;;;5092899;28;20498;-66
2022/04/08 00:14:11;;;;;;;1999.90;999.90;;;7.30;99.90;;;;;;5093173;28;20476;-66
2022/04/08 00:16:38;;;;;;;1999.90;999.90;;;7.30;99.90;;;;;;5093171;28;20876;-65
2022/04/08 00:19:05;;;;;;;1999.90;999.90;;;7.40;99.90;;;;;;5125712;22;20492;-70
2022/04/08 00:21:32;;;;;;;1999.90;999.90;;;7.30;99.90;;;;;;5077562;28;20463;-68
2022/04/08 00:23:58;;;;;;;1999.90;999.90;;;7.30;99.90;;;;;;5076014;28;20449;-70
2022/04/08 00:26:27;;;;;;;1999.90;999.90;;;7.30;99.90;;;;;;5077046;28;20450;-70
2022/04/08 00:28:53;;;;;;;1999.90;999.90;;;7.30;99.90;;;;;;5075664;28;20902;-71
2022/04/08 00:31:20;;;;;;;1999.90;999.90;;;7.30;99.90;;;;;;5070528;28;20459;-74
2022/04/08 00:33:47;;;;;;;1999.90;999.90;;;7.20;99.90;;;;;;5069988;28;20834;-71
2022/04/08 00:36:13;;;;;;;1999.90;999.90;;;7.20;99.90;;;;;;5071135;28;20638;-71
2022/04/08 00:38:40;;;;;;;1999.90;999.90;;;7.20;99.90;;;;;;5074842;28;20473;-70
2022/04/08 00:41:07;;;;;;;1999.90;999.90;;;7.20;99.90;;;;;;5076654;28;20857;-70
2022/04/08 00:43:37;;;;;;;1999.90;999.90;;;7.10;99.90;;;;;;5075439;28;20449;-70
2022/04/08 00:46:05;;;;;;;1999.90;999.90;;;7.10;99.90;;;;;;5076464;28;20472;-70
2022/04/08 00:48:32;;;;;;;1999.90;999.90;;;7.10;99.90;;;;;;5069415;28;20452;-70
2022/04/08 00:51:00;;;;;;;1999.90;999.90;;;7.20;99.90;;;;;;5069115;28;20473;-71
2022/04/08 00:53:28;;;;;;;1999.90;999.90;;;7.20;99.90;;;;;;5069894;28;20477;-73
2022/04/08 00:55:55;;;;;;;1999.90;999.90;;;7.20;99.90;;;;;;5075099;28;20449;-70
2022/04/08 00:58:23;;;;;;;1999.90;999.90;;;7.20;99.90;;;;;;5074407;28;20488;-71
2022/04/08 01:00:52;;;;;;;1999.90;999.90;;;7.30;99.90;;;;;;5069479;28;20476;-71
2022/04/08 01:03:18;;;;;;;1999.90;999.90;;;7.30;99.90;;;;;;5069411;28;20454;-69
2022/04/08 01:05:45;;;;;;;1999.90;999.90;;;7.30;99.90;;;;;;5069295;28;20454;-70
2022/04/08 01:08:14;;;;;;;1999.90;999.90;;;7.30;99.90;;;;;;5070733;28;20472;-71
2022/04/08 01:10:41;;;;;;;1999.90;999.90;;;7.30;99.90;;;;;;5069764;28;20533;-70
2022/04/08 01:13:08;;;;;;;1999.90;999.90;;;7.30;99.90;;;;;;5070066;28;20450;-71
2022/04/08 01:15:35;;;;;;;1999.90;999.90;;;7.30;99.90;;;;;;5071610;28;20485;-71
2022/04/08 01:18:05;;;;;;;1999.90;999.90;;;7.60;99.90;;;;;;5075548;28;20460;-70
2022/04/08 01:20:32;;;;;;;1999.90;999.90;;;7.30;99.90;;;;;;5075197;28;20481;-71
2022/04/08 01:22:59;;;;;;;1999.90;999.90;;;7.30;99.90;;;;;;5073536;28;20449;-73
2022/04/08 01:25:27;;;;;;;1999.90;999.90;;;7.20;99.90;;;;;;5069515;28;20876;-70
2022/04/08 01:27:54;;;;;;;1999.90;999.90;;;7.30;99.90;;;;;;5070146;28;20453;-71
2022/04/08 01:30:20;;;;;;;1999.90;999.90;;;7.20;99.90;;;;;;5069323;28;20461;-70
2022/04/08 01:32:47;;;;;;;1999.90;999.90;;;7.20;99.90;;;;;;5068231;28;20447;-70
2022/04/08 01:35:14;;;;;;;1999.90;999.90;;;7.20;99.90;;;;;;5068730;28;20527;-71
2022/04/08 01:37:41;;;;;;;1999.90;999.90;;;7.20;99.90;;;;;;5070608;28;20452;-70
2022/04/08 01:40:09;;;;;;;1999.90;999.90;;;7.20;99.90;;;;;;5068208;28;20488;-72
2022/04/08 01:42:37;;;;;;;1999.90;999.90;;;7.20;99.90;;;;;;5068398;28;20450;-70
2022/04/08 01:45:05;;;;;;;1999.90;999.90;;;7.10;99.90;;;;;;5070055;28;20453;-69
2022/04/08 01:47:32;;;;;;;1999.90;999.90;;;7.10;99.90;;;;;;5070218;28;20464;-71
2022/04/08 01:49:58;;;;;;;1999.90;999.90;;;7.10;99.90;;;;;;5068903;28;21014;-71
2022/04/08 01:52:25;;;;;;;1999.90;999.90;;;7.10;99.90;;;;;;5068452;28;20452;-71
2022/04/08 01:54:52;;;;;;;1999.90;999.90;;;7.10;99.90;;;;;;5069599;28;20480;-69
2022/04/08 01:57:23;;;;;;;1999.90;999.90;;;7.10;99.90;;;;;;5069088;28;21160;-71
2022/04/08 01:59:52;;;;;;;1999.90;999.90;;;7.10;99.90;;;;;;5069133;28;20516;-71
2022/04/08 02:02:19;;;;;;;1999.90;999.90;;;7.10;99.90;;;;;;5069234;28;20446;-68
2022/04/08 02:04:46;;;;;;;1999.90;999.90;;;7.10;99.90;;;;;;5072503;28;20438;-69
2022/04/08 02:07:13;;;;;;;1999.90;999.90;;;7.00;99.90;;;;;;5077358;28;20453;-73
2022/04/08 02:09:40;;;;;;;1999.90;999.90;;;7.10;99.90;;;;;;5077771;28;20479;-70
2022/04/08 02:12:07;;;;;;;1999.90;999.90;;;7.10;99.90;;;;;;5079197;28;20449;-72
2022/04/08 02:14:33;;;;;;;1999.90;999.90;;;7.10;99.90;;;;;;5075896;28;20473;-70
2022/04/08 02:17:01;;;;;;;1999.90;999.90;;;7.10;99.90;;;;;;5071712;28;20458;-70
2022/04/08 02:19:28;;;;;;;1999.90;999.90;;;7.20;99.90;;;;;;5073106;28;20478;-71
2022/04/08 02:21:57;;;;;;;1999.90;999.90;;;7.20;99.90;;;;;;5071979;28;20531;-72
2022/04/08 02:24:24;;;;;;;1999.90;999.90;;;7.10;99.90;;;;;;5075612;28;20966;-70
2022/04/08 02:26:51;;;;;;;1999.90;999.90;;;7.10;99.90;;;;;;5079093;28;20449;-71
2022/04/08 02:29:18;;;;;;;1999.90;999.90;;;7.10;99.90;;;;;;5077926;28;20851;-71
2022/04/08 02:31:44;;;;;;;1999.90;999.90;;;7.10;99.90;;;;;;5076815;28;20960;-69
2022/04/08 02:34:13;;;;;;;1999.90;999.90;;;7.00;99.90;;;;;;5072834;28;20568;-69
2022/04/08 02:36:40;;;;;;;1999.90;999.90;;;7.00;99.90;;;;;;5072275;28;20462;-72
2022/04/08 02:39:07;;;;;;;1999.90;999.90;;;7.10;99.90;;;;;;5079633;28;20469;-71
2022/04/08 02:41:34;;;;;;;1999.90;999.90;;;7.10;99.90;;;;;;5078316;28;21190;-70
2022/04/08 02:44:01;;;;;;;1999.90;999.90;;;7.10;99.90;;;;;;5077827;28;20449;-71
2022/04/08 02:46:27;;;;;;;1999.90;999.90;;;7.10;99.90;;;;;;5077471;28;20962;-69
2022/04/08 02:48:54;;;;;;;1999.90;999.90;;;7.20;99.90;;;;;;5077470;28;20956;-70
2022/04/08 02:51:23;;;;;;;1999.90;999.90;;;7.20;99.90;;;;;;5076307;28;20957;-70
2022/04/08 02:53:49;;;;;;;1999.90;999.90;;;7.50;99.90;;;;;;5077750;28;20450;-70
2022/04/08 02:56:16;;;;;;;1999.90;999.90;;;7.20;99.90;;;;;;5077375;28;20719;-73
2022/04/08 02:58:43;;;;;;;1999.90;999.90;;;7.20;99.90;;;;;;5071489;28;20469;-70
2022/04/08 03:01:10;;;;;;;1999.90;999.90;;;7.20;99.90;;;;;;5071907;28;20886;-71
2022/04/08 03:03:37;;;;;;;1999.90;999.90;;;7.20;99.90;;;;;;5071491;28;20460;-69
2022/04/08 03:06:03;;;;;;;1999.90;999.90;;;7.10;99.90;;;;;;5072931;28;20965;-69
2022/04/08 03:08:31;;;;;;;1999.90;999.90;;;7.20;99.90;;;;;;5070872;28;20457;-70
2022/04/08 03:10:58;;;;;;;1999.90;999.90;;;7.20;99.90;;;;;;5072372;28;20457;-72
2022/04/08 03:13:25;;;;;;;1999.90;999.90;;;7.20;99.90;;;;;;5070670;28;20503;-72
2022/04/08 03:15:52;;;;;;;1999.90;999.90;;;7.10;99.90;;;;;;5071367;28;20846;-71
2022/04/08 03:18:19;;;;;;;1999.90;999.90;;;7.00;99.90;;;;;;5071763;28;20962;-70
2022/04/08 03:20:46;;;;;;;1999.90;999.90;;;6.90;99.90;;;;;;5071832;28;20469;-69
2022/04/08 03:23:13;;;;;;;1999.90;999.90;;;6.80;99.90;;;;;;5075857;28;20495;-71
2022/04/08 03:25:41;;;;;;;1999.90;999.90;;;6.80;99.90;;;;;;5077288;28;20870;-73
2022/04/08 03:28:10;;;;;;;1999.90;999.90;;;7.10;99.90;;;;;;5074283;28;20454;-72
2022/04/08 03:30:37;;;;;;;1999.90;999.90;;;6.70;99.90;;;;;;5071671;28;20465;-71
2022/04/08 03:33:03;;;;;;;1999.90;999.90;;;6.60;99.90;;;;;;5071357;28;20448;-71
2022/04/08 03:35:30;;;;;;;1999.90;999.90;;;6.40;99.90;;;;;;5073936;28;20872;-71
2022/04/08 03:37:57;;;;;;;1999.90;999.90;;;6.30;99.90;;;;;;5076831;28;20449;-70
2022/04/08 03:40:24;;;;;;;1999.90;999.90;;;6.30;99.90;;;;;;5077071;28;20461;-72
2022/04/08 03:42:53;;;;;;;1999.90;999.90;;;6.30;99.90;;;;;;5076622;28;20973;-72
2022/04/08 03:45:19;;;;;;;1999.90;999.90;;;6.30;99.90;;;;;;5078463;28;20449;-71
2022/04/08 03:47:47;;;;;;;1999.90;999.90;;;6.30;99.90;;;;;;5070260;28;20562;-71
2022/04/08 03:50:14;;;;;;;1999.90;999.90;;;6.30;99.90;;;;;;5070699;28;20604;-69
2022/04/08 03:52:42;;;;;;;1999.90;999.90;;;6.20;99.90;;;;;;5071861;28;20491;-69
2022/04/08 03:55:09;;;;;;;1999.90;999.90;;;6.20;99.90;;;;;;5076381;28;20477;-70
2022/04/08 03:57:36;;;;;;;1999.90;999.90;;;6.20;99.90;;;;;;5076513;28;20457;-70
2022/04/08 04:00:05;;;;;;;1999.90;999.90;;;6.20;99.90;;;;;;5070692;28;20806;-71
2022/04/08 04:02:32;;;;;;;1999.90;999.90;;;6.20;99.90;;;;;;5068852;28;20442;-69
2022/04/08 04:05:00;;;;;;;1999.90;999.90;;;6.10;99.90;;;;;;5069364;28;20453;-70
2022/04/08 04:07:27;;;;;;;1999.90;999.90;;;6.10;99.90;;;;;;5068935;28;20549;-72
2022/04/08 04:09:54;;;;;;;1999.90;999.90;;;6.10;99.90;;;;;;5069603;28;20571;-69
2022/04/08 04:12:21;;;;;;;1999.90;999.90;;;6.10;99.90;;;;;;5071243;28;20826;-70
2022/04/08 04:14:47;;;;;;;1999.90;999.90;;;6.20;99.90;;;;;;5070446;28;20503;-72
2022/04/08 04:17:15;;;;;;;1999.90;999.90;;;6.30;99.90;;;;;;5070819;28;20446;-70
2022/04/08 04:19:42;;;;;;;1999.90;999.90;;;6.10;99.90;;;;;;5071445;28;20477;-70
2022/04/08 04:22:09;;;;;;;1999.90;999.90;;;6.00;99.90;;;;;;5071737;28;20503;-70
2022/04/08 04:24:35;;;;;;;1999.90;999.90;;;6.00;99.90;;;;;;5076792;28;20481;-71
2022/04/08 04:27:02;;;;;;;1999.90;999.90;;;6.00;99.90;;;;;;5076330;28;20450;-70
2022/04/08 04:29:29;;;;;;;1999.90;999.90;;;5.90;99.90;;;;;;5074919;28;20469;-70
2022/04/08 04:31:56;;;;;;;1999.90;999.90;;;5.90;99.90;;;;;;5070409;28;21823;-70
2022/04/08 04:34:25;;;;;;;1999.90;999.90;;;5.80;99.90;;;;;;5070538;28;20513;-73
2022/04/08 04:36:51;;;;;;;1999.90;999.90;;;5.60;99.90;;;;;;5070928;28;21012;-69
2022/04/08 04:39:18;;;;;;;1999.90;999.90;;;5.80;99.90;;;;;;5072043;28;20469;-71
2022/04/08 04:41:45;;;;;;;1999.90;999.90;;;5.80;99.90;;;;;;5070434;28;20457;-67
2022/04/08 04:44:12;;;;;;;1999.90;999.90;;;5.80;99.90;;;;;;5072774;28;20479;-70
2022/04/08 04:46:38;;;;;;;1999.90;999.90;;;5.80;99.90;;;;;;5076199;28;20441;-70
2022/04/08 04:49:05;;;;;;;1999.90;999.90;;;5.70;99.90;;;;;;5075311;28;20473;-70
2022/04/08 04:51:33;;;;;;;1999.90;999.90;;;5.70;99.90;;;;;;5075751;28;20485;-66
2022/04/08 04:54:00;;;;;;;1999.90;999.90;;;5.70;99.90;;;;;;5074447;28;20476;-69
2022/04/08 04:56:26;;;;;;;1999.90;999.90;;;5.70;99.90;;;;;;5069827;28;20485;-73
2022/04/08 04:58:53;;;;;;;1999.90;999.90;;;5.70;99.90;;;;;;5069169;28;20556;-71
2022/04/08 05:01:20;;;;;;;1999.90;999.90;;;5.80;99.90;;;;;;5068921;28;20461;-72
2022/04/08 05:03:47;;;;;;;1999.90;999.90;;;5.90;99.90;;;;;;5068948;28;20453;-70
2022/04/08 05:06:13;;;;;;;1999.90;999.90;;;5.90;99.90;;;;;;5068447;28;20449;-71
2022/04/08 05:08:41;;;;;;;1999.90;999.90;;;6.00;99.90;;;;;;5071766;28;20499;-70
2022/04/08 05:11:08;;;;;;;1999.90;999.90;;;6.10;99.90;;;;;;5074447;28;20457;-70
2022/04/08 05:13:35;;;;;;;1999.90;999.90;;;6.10;99.90;;;;;;5073907;28;20455;-71
2022/04/08 05:16:02;;;;;;;1999.90;999.90;;;6.20;99.90;;;;;;5075221;28;20564;-70
2022/04/08 05:18:29;;;;;;;1999.90;999.90;;;6.30;99.90;;;;;;5074764;28;20461;-70
2022/04/08 05:20:55;;;;;;;1999.90;999.90;;;6.20;99.90;;;;;;5074686;28;20450;-71
2022/04/08 05:23:25;;;;;;;1999.90;999.90;;;6.20;99.90;;;;;;5074941;28;20456;-70
2022/04/08 05:25:53;;;;;;;1999.90;999.90;;;6.20;99.90;;;;;;5074366;28;20558;-69
2022/04/08 05:28:20;;;;;;;1999.90;999.90;;;6.30;99.90;;;;;;5074875;28;20449;-71
2022/04/08 05:30:47;;;;;;;1999.90;999.90;;;6.30;99.90;;;;;;5070350;28;20456;-73
2022/04/08 05:33:14;;;;;;;1999.90;999.90;;;6.30;99.90;;;;;;5068765;28;20886;-70
2022/04/08 05:35:41;;;;;;;1999.90;999.90;;;6.40;99.90;;;;;;5069278;28;20473;-71
2022/04/08 05:38:08;;;;;;;1999.90;999.90;;;6.40;99.90;;;;;;5068249;28;20448;-69
2022/04/08 05:40:34;;;;;;;1999.90;999.90;;;6.50;99.90;;;;;;5068830;28;20480;-70
2022/04/08 05:43:02;;;;;;;1999.90;999.90;;;6.50;99.90;;;;;;5071170;28;20450;-70
2022/04/08 05:45:29;;;;;;;1999.90;999.90;;;6.40;99.90;;;;;;5075302;28;20446;-71
2022/04/08 05:47:56;;;;;;;1999.90;999.90;;;6.40;99.90;;;;;;5074427;28;20992;-70
2022/04/08 05:50:23;;;;;;;1999.90;999.90;;;6.50;99.90;;;;;;5069840;28;21083;-72
2022/04/08 05:52:51;;;;;;;1999.90;999.90;;;6.40;99.90;;;;;;5068176;28;21982;-70
2022/04/08 05:55:18;;;;;;;1999.90;999.90;;;6.50;99.90;;;;;;5068333;28;20606;-69
2022/04/08 05:57:46;;;;;;;1999.90;999.90;;;6.50;99.90;;;;;;5069782;28;20461;-71
2022/04/08 06:00:17;;;;;;;1999.90;999.90;;;6.40;99.90;;;;;;5069012;28;20469;-71
2022/04/08 06:02:45;;;;;;;1999.90;999.90;;;6.40;99.90;;;;;;5072141;28;20441;-70
2022/04/08 06:05:14;;;;;;;1999.90;999.90;;;6.40;99.90;;;;;;5074392;28;20456;-70
2022/04/08 06:07:45;;;;;;;1999.90;999.90;;;6.40;99.90;;;;;;5072250;28;21047;-72
2022/04/08 06:10:12;;;;;;;1999.90;999.90;;;6.50;99.90;;;;;;5070993;28;20477;-71
2022/04/08 06:12:39;;;;;;;1999.90;999.90;;;6.40;99.90;;;;;;5073813;28;21007;-69
2022/04/08 06:15:07;;;;;;;1999.90;999.90;;;6.30;99.90;;;;;;5074611;28;20515;-75
2022/04/08 06:17:37;;;;;;;1999.90;999.90;;;6.30;99.90;;;;;;5075752;28;20502;-73
2022/04/08 06:20:06;;;;;;;1999.90;999.90;;;6.30;99.90;;;;;;5088174;22;20536;-65
2022/04/08 06:22:32;;;;;;;1999.90;999.90;;;5.90;99.90;;;;;;5067454;28;20458;-68
2022/04/08 06:24:59;;;;;;;1999.90;999.90;;;5.50;99.90;;;;;;5071116;28;20858;-68
2022/04/08 06:27:26;;;;;;;1999.90;999.90;;;5.30;99.90;;;;;;5071270;28;20997;-68
2022/04/08 06:29:52;;;;;;;1999.90;999.90;;;5.10;99.90;;;;;;5071325;28;20476;-67
2022/04/08 06:32:19;;;;;;;1999.90;999.90;;;5.10;99.90;;;;;;5070980;28;20506;-68
2022/04/08 06:34:48;;;;;;;1999.90;999.90;;;4.70;99.90;;;;;;5068216;28;20441;-68
2022/04/08 06:37:14;;;;;;;1999.90;999.90;;;5.30;99.90;;;;;;5070567;28;20499;-68
2022/04/08 06:39:41;;;;;;;1999.90;999.90;;;5.40;99.90;;;;;;5071100;28;20472;-68
2022/04/08 06:42:08;;;;;;;1999.90;999.90;;;5.50;99.90;;;;;;5070559;28;20442;-68
2022/04/08 06:44:35;;;;;;;1999.90;999.90;;;5.80;99.90;;;;;;5070336;28;20457;-67
2022/04/08 06:47:02;;;;;;;1999.90;999.90;;;6.10;99.90;;;;;;5071285;28;20452;-68
2022/04/08 06:49:28;;;;;;;1999.90;999.90;;;6.40;99.90;;;;;;5071824;28;20461;-68
2022/04/08 06:51:58;;;;;;;1999.90;999.90;;;6.60;99.90;;;;;;5074887;28;20445;-68
2022/04/08 06:54:25;;;;;;;1999.90;999.90;;;6.80;99.90;;;;;;5075612;28;20562;-68
2022/04/08 06:56:51;;;;;;;1999.90;999.90;;;7.10;99.90;;;;;;5076783;28;20485;-68
2022/04/08 06:59:18;;;;;;;1999.90;999.90;;;7.20;99.90;;;;;;5075127;28;20554;-69
2022/04/08 07:01:45;;;;;;;1999.90;999.90;;;7.50;99.90;;;;;;5074406;28;20449;-67
2022/04/08 07:04:11;;;;;;;1999.90;999.90;;;7.70;99.90;;;;;;5074082;28;20504;-68
2022/04/08 07:06:38;;;;;;;1999.90;999.90;;;7.70;99.90;;;;;;5079078;28;20954;-68
2022/04/08 07:09:06;;;;;;;1999.90;999.90;;;7.90;99.90;;;;;;5074947;28;20486;-68
2022/04/08 07:11:33;;;;;;;1999.90;999.90;;;7.80;99.90;;;;;;5074588;28;20445;-68
2022/04/08 07:13:59;;;;;;;1999.90;999.90;;;8.00;99.90;;;;;;5074731;28;20452;-68
2022/04/08 07:16:26;;;;;;;1999.90;999.90;;;8.30;99.90;;;;;;5074362;28;20481;-68
2022/04/08 07:18:52;;;;;;;1999.90;999.90;;;8.40;99.90;;;;;;5074070;28;20867;-69
2022/04/08 07:21:19;;;;;;;1999.90;999.90;;;8.50;99.90;;;;;;5073945;28;20539;-69
2022/04/08 07:23:46;;;;;;;1999.90;999.90;;;8.60;99.90;;;;;;5073692;28;20485;-68
2022/04/08 07:26:14;;;;;;;1999.90;999.90;;;8.60;99.90;;;;;;5074359;28;20445;-68
2022/04/08 07:28:41;;;;;;;1999.90;999.90;;;8.60;99.90;;;;;;5073371;28;20954;-68
2022/04/08 07:31:08;;;;;;;1999.90;999.90;;;8.60;99.90;;;;;;5073656;28;20802;-68
2022/04/08 07:33:34;;;;;;;1999.90;999.90;;;8.70;99.90;;;;;;5075247;28;20465;-68
2022/04/08 07:36:03;;;;;;;1999.90;999.90;;;8.80;99.90;;;;;;5073524;28;20531;-69
2022/04/08 07:38:30;;;;;;;1999.90;999.90;;;8.90;99.90;;;;;;5072823;28;20489;-69
2022/04/08 07:40:57;;;;;;;1999.90;999.90;;;8.70;99.90;;;;;;5074508;28;20500;-68
2022/04/08 07:43:25;;;;;;;1999.90;999.90;;;8.90;99.90;;;;;;5072767;28;20457;-67
2022/04/08 07:45:52;;;;;;;1999.90;999.90;;;9.20;99.90;;;;;;5069148;28;20507;-68
2022/04/08 07:48:19;;;;;;;1999.90;999.90;;;9.00;99.90;;;;;;5073778;28;20449;-69
2022/04/08 07:50:46;;;;;;;1999.90;999.90;;;8.70;99.90;;;;;;5074578;28;20457;-69
2022/04/08 07:53:13;;;;;;;1999.90;999.90;;;8.20;99.90;;;;;;5074416;28;20449;-68
2022/04/08 07:55:40;;;;;;;1999.90;999.90;;;8.10;99.90;;;;;;5074364;28;20449;-70
2022/04/08 07:58:06;;;;;;;1999.90;999.90;;;8.00;99.90;;;;;;5074223;28;21128;-68
2022/04/08 08:00:34;;;;;;;1999.90;999.90;;;8.00;99.90;;;;;;5074008;28;20473;-68
2022/04/08 08:03:01;;;;;;;1999.90;999.90;;;8.10;99.90;;;;;;5073565;28;21014;-68
2022/04/08 08:05:29;;;;;;;1999.90;999.90;;;8.40;99.90;;;;;;5073618;28;20513;-68
2022/04/08 08:07:57;;;;;;;1999.90;999.90;;;8.60;99.90;;;;;;5072808;28;20503;-69
2022/04/08 08:10:26;;;;;;;1999.90;999.90;;;8.50;99.90;;;;;;5068492;28;20469;-69
2022/04/08 08:12:54;;;;;;;1999.90;999.90;;;8.50;99.90;;;;;;5073474;28;20450;-69
2022/04/08 08:15:21;;;;;;;1999.90;999.90;;;8.70;99.90;;;;;;5073334;28;20863;-68
2022/04/08 08:17:50;;;;;;;1999.90;999.90;;;8.90;99.90;;;;;;5073393;28;20477;-68
2022/04/08 08:20:18;;;;;;;1999.90;999.90;;;8.90;99.90;;;;;;5072523;28;20473;-67
2022/04/08 08:22:45;;;;;;;1999.90;999.90;;;9.00;99.90;;;;;;5072840;28;20453;-68
2022/04/08 08:25:13;;;;;;;1999.90;999.90;;;9.10;99.90;;;;;;5072470;28;20445;-69
2022/04/08 08:27:41;;;;;;;1999.90;999.90;;;9.00;99.90;;;;;;5073083;28;20495;-69
2022/04/08 08:30:10;;;;;;;1999.90;999.90;;;9.40;99.90;;;;;;5073055;28;20461;-68
2022/04/08 08:32:37;;;;;;;1999.90;999.90;;;9.40;99.90;;;;;;5073345;28;20450;-69
2022/04/08 08:35:07;;;;;;;1999.90;999.90;;;9.10;99.90;;;;;;5073392;28;20456;-68
2022/04/08 08:37:35;;;;;;;1999.90;999.90;;;9.10;99.90;;;;;;5068750;28;20865;-68
2022/04/08 08:40:02;;;;;;;1999.90;999.90;;;9.30;99.90;;;;;;5072504;28;20873;-68
2022/04/08 08:42:30;;;;;;;1999.90;999.90;;;9.50;99.90;;;;;;5072436;28;20453;-68
2022/04/08 08:44:57;;;;;;;1999.90;999.90;;;9.50;99.90;;;;;;5071857;28;20503;-69
2022/04/08 08:47:27;;;;;;;1999.90;999.90;;;10.10;99.90;;;;;;5071215;28;20441;-68
2022/04/08 08:49:54;;;;;;;1999.90;999.90;;;10.40;99.90;;;;;;5072584;28;20465;-69
2022/04/08 08:52:23;;;;;;;1999.90;999.90;;;10.40;99.90;;;;;;5072585;28;20442;-68
2022/04/08 08:54:50;;;;;;;1999.90;999.90;;;10.30;99.90;;;;;;5072223;28;20495;-66
2022/04/08 08:57:17;;;;;;;1999.90;999.90;;;10.30;99.90;;;;;;5072706;28;20538;-67
2022/04/08 08:59:46;;;;;;;1999.90;999.90;;;10.20;99.90;;;;;;5072517;28;20527;-66
2022/04/08 09:02:17;;;;;;;1999.90;999.90;;;10.40;99.90;;;;;;5072166;28;20457;-67
2022/04/08 09:04:44;;;;;;;1999.90;999.90;;;10.40;99.90;;;;;;5072131;28;20445;-67
2022/04/08 09:07:23;;;;;;;1999.90;999.90;;;10.40;99.90;;;;;;5071510;28;21021;-67
2022/04/08 09:09:52;;;;;;;1999.90;999.90;;;10.50;99.90;;;;;;5071768;28;20461;-67
2022/04/08 09:12:22;;;;;;;1999.90;999.90;;;10.30;99.90;;;;;;5072486;28;20442;-65
2022/04/08 09:14:50;;;;;;;1999.90;999.90;;;10.40;99.90;;;;;;5072127;28;20441;-67
2022/04/08 09:17:18;;;;;;;1999.90;999.90;;;10.00;99.90;;;;;;5071773;28;20481;-65
2022/04/08 09:19:48;;;;;;;1999.90;999.90;;;9.90;99.90;;;;;;5071670;28;20480;-67
2022/04/08 09:22:14;;;;;;;1999.90;999.90;;;9.80;99.90;;;;;;5071993;28;20472;-67
2022/04/08 09:24:42;;;;;;;1999.90;999.90;;;9.70;99.90;;;;;;5072271;28;20480;-69
2022/04/08 09:27:10;;;;;;;1999.90;999.90;;;9.90;99.90;;;;;;5073482;28;20445;-69
2022/04/08 09:29:38;;;;;;;1999.90;999.90;;;9.70;99.90;;;;;;5071733;28;20556;-69
2022/04/08 09:32:10;;;;;;;1999.90;999.90;;;9.70;99.90;;;;;;5071711;28;20583;-69
2022/04/08 09:34:37;;;;;;;1999.90;999.90;;;10.00;99.90;;;;;;5071049;28;20449;-69
2022/04/08 09:37:10;;;;;;;1999.90;999.90;;;10.30;99.90;;;;;;5071692;28;21064;-69
2022/04/08 09:39:37;;;;;;;1999.90;999.90;;;10.40;99.90;;;;;;5071611;28;21006;-69
2022/04/08 09:42:08;;;;;;;1999.90;999.90;;;10.70;99.90;;;;;;5071211;28;20446;-69
2022/04/08 09:44:37;;;;;;;1999.90;999.90;;;11.00;99.90;;;;;;5071484;28;20448;-69
2022/04/08 09:47:04;;;;;;;1999.90;999.90;;;10.80;99.60;;;;;;5071180;28;20441;-68
2022/04/08 09:49:30;;;;;;;1999.90;999.90;;;10.70;99.40;;;;;;5071431;28;20469;-69
2022/04/08 09:51:59;;;;;;;1999.90;999.90;;;10.60;99.90;;;;;;5071286;28;20452;-69
2022/04/08 09:54:29;;;;;;;1999.90;999.90;;;10.70;99.60;;;;;;5071768;28;20453;-69
2022/04/08 09:56:59;;;;;;;1999.90;999.90;;;10.60;99.50;;;;;;5071097;28;20473;-69
2022/04/08 09:59:30;;;;;;;1999.90;999.90;;;10.60;98.70;;;;;;5071045;28;20490;-69
2022/04/08 10:01:58;;;;;;;1999.90;999.90;;;10.60;99.20;;;;;;5070993;28;20460;-68
2022/04/08 10:04:25;;;;;;;1999.90;999.90;;;10.80;98.30;;;;;;5071931;28;20442;-68
2022/04/08 10:06:52;;;;;;;1999.90;999.90;;;10.90;98.30;;;;;;5070748;28;20997;-68
2022/04/08 10:09:20;;;;;;;1999.90;999.90;;;10.80;97.80;;;;;;5070976;28;20442;-69
2022/04/08 10:11:57;;;;;;;1999.90;999.90;;;10.30;97.70;;;;;;5070900;28;20453;-65
2022/04/08 10:14:43;;;;;;;1999.90;999.90;;;10.70;99.00;;;;;;5071779;28;20506;-67
2022/04/08 10:17:11;;;;;;;1999.90;999.90;;;11.00;97.00;;;;;;5070007;28;20477;-67
2022/04/08 10:19:37;;;;;;;1999.90;999.90;;;11.20;95.80;;;;;;5075306;28;20531;-67
2022/04/08 10:22:16;;;;;;;1999.90;999.90;;;11.10;95.10;;;;;;5075553;28;20876;-68
2022/04/08 10:24:52;;;;;;;1999.90;999.90;;;10.90;95.00;;;;;;5074361;28;20472;-66
2022/04/08 10:27:29;;;;;;;1999.90;999.90;;;11.00;96.40;;;;;;5069165;28;20445;-68
2022/04/08 10:29:58;;;;;;;1999.90;999.90;;;11.10;95.20;;;;;;5075083;28;20465;-67
2022/04/08 10:32:25;;;;;;;1999.90;999.90;;;10.90;95.30;;;;;;5074980;28;20451;-67
2022/04/08 10:34:51;;;;;;;1999.90;999.90;;;10.90;95.50;;;;;;5075058;28;20441;-67
2022/04/08 10:37:20;;;;;;;1999.90;999.90;;;11.00;96.10;;;;;;5074413;28;20538;-67
2022/04/08 10:39:57;;;;;;;1999.90;999.90;;;11.20;94.50;;;;;;5075227;28;20970;-67
2022/04/08 10:42:24;;;;;;;1999.90;999.90;;;11.10;94.50;;;;;;5074658;28;20437;-69
2022/04/08 10:44:51;;;;;;;1999.90;999.90;;;11.00;94.80;;;;;;5074723;28;20449;-67
2022/04/08 10:47:23;;;;;;;1999.90;999.90;;;11.10;95.70;;;;;;5074990;28;20956;-67
2022/04/08 10:49:51;;;;;;;1999.90;999.90;;;11.10;95.40;;;;;;5074800;28;20473;-67
2022/04/08 10:52:21;;;;;;;1999.90;999.90;;;11.20;94.40;;;;;;5074413;28;20498;-67
2022/04/08 10:54:49;;;;;;;1999.90;999.90;;;11.30;94.30;;;;;;5075529;28;20483;-67
2022/04/08 10:57:27;;;;;;;1999.90;999.90;;;11.40;94.50;;;;;;5075785;28;20538;-68
2022/04/08 10:59:55;;;;;;;1999.90;999.90;;;11.20;94.60;;;;;;5075176;28;20901;-67
2022/04/08 11:02:24;;;;;;;1999.90;999.90;;;11.30;95.10;;;;;;5074981;28;20445;-67
2022/04/08 11:05:00;;;;;;;1999.90;999.90;;;11.40;95.00;;;;;;5075160;28;20441;-67
2022/04/08 11:07:27;;;;;;;1999.90;999.90;;;11.50;95.00;;;;;;5074016;28;20498;-67
2022/04/08 11:09:55;;;;;;;1999.90;999.90;;;11.70;95.00;;;;;;5075003;28;20475;-67
2022/04/08 11:12:22;;;;;;;1999.90;999.90;;;11.80;94.60;;;;;;5074857;28;20457;-67
2022/04/08 11:14:54;;;;;;;1999.90;999.90;;;11.90;95.00;;;;;;5075479;28;20458;-70
2022/04/08 11:17:22;;;;;;;1999.90;999.90;;;12.10;93.80;;;;;;5074166;28;20978;-67
2022/04/08 11:19:50;;;;;;;1999.90;999.90;;;11.80;94.20;;;;;;5073966;28;20534;-67
2022/04/08 11:22:16;;;;;;;1999.90;999.90;;;11.00;95.10;;;;;;5072675;28;20970;-67
2022/04/08 11:24:43;;;;;;;1999.90;999.90;;;11.20;97.00;;;;;;5074375;28;20479;-67
2022/04/08 11:27:11;;;;;;;1999.90;999.90;;;11.30;96.40;;;;;;5075074;28;20507;-68
2022/04/08 11:29:39;;;;;;;1999.90;999.90;;;11.50;96.30;;;;;;5073652;28;20583;-67
2022/04/08 11:32:10;;;;;;;1999.90;999.90;;;11.40;95.70;;;;;;5073977;28;20452;-67
2022/04/08 11:34:39;;;;;;;1999.90;999.90;;;11.10;94.70;;;;;;5073982;28;20441;-68
2022/04/08 11:37:06;;;;;;;1999.90;999.90;;;11.10;94.40;;;;;;5073834;28;20485;-67
2022/04/08 11:39:33;;;;;;;1999.90;999.90;;;11.00;94.70;;;;;;5073700;28;20461;-68
2022/04/08 11:42:02;;;;;;;1999.90;999.90;;;11.20;93.10;;;;;;5074250;28;20441;-68
2022/04/08 11:44:28;;;;;;;1999.90;999.90;;;11.40;93.70;;;;;;5074244;28;20962;-68
2022/04/08 11:47:05;;;;;;;1999.90;999.90;;;11.70;94.40;;;;;;5077880;28;20529;-67
2022/04/08 11:49:32;;;;;;;1999.90;999.90;;;11.70;93.40;;;;;;5073455;28;20518;-67
2022/04/08 11:52:03;;;;;;;1999.90;999.90;;;11.10;93.30;;;;;;5076359;28;20449;-67
2022/04/08 11:54:35;;;;;;;1999.90;999.90;;;10.80;94.30;;;;;;5074864;28;20451;-67
2022/04/08 11:57:03;;;;;;;1999.90;999.90;;;10.40;95.00;;;;;;5072840;28;20511;-67
2022/04/08 11:59:29;;;;;;;1999.90;999.90;;;10.60;94.50;;;;;;5070271;28;20478;-66
2022/04/08 12:01:59;;;;;;;1999.90;999.90;;;11.00;93.90;;;;;;5072997;28;20449;-65
2022/04/08 12:04:27;;;;;;;1999.90;999.90;;;11.40;93.90;;;;;;5074039;28;20473;-67
2022/04/08 12:06:54;;;;;;;1999.90;999.90;;;11.60;92.00;;;;;;5073432;28;20449;-67
2022/04/08 12:09:22;;;;;;;1999.90;999.90;;;11.80;91.10;;;;;;5073274;28;20499;-68